createdAt,value
2022-12-11T00:00:23.678Z,0.00
2022-12-11T00:01:56.777Z,0.00
2022-12-11T00:03:29.704Z,0.00
2022-12-11T00:05:02.616Z,0.00
2022-12-11T00:06:36.856Z,0.10
2022-12-11T00:08:09.831Z,0.10
2022-12-11T00:09:43.111Z,0.10
2022-12-11T00:11:16.736Z,0.20
2022-12-11T00:12:49.610Z,0.20
2022-12-11T00:14:22.429Z,0.20
2022-12-11T00:15:54.288Z,0.20
2022-12-11T00:17:27.423Z,0.20
2022-12-11T00:19:00.309Z,0.20
2022-12-11T00:20:33.126Z,0.20
2022-12-11T00:22:07.879Z,0.20
2022-12-11T00:23:40.984Z,0.30
2022-12-11T00:25:16.323Z,0.30
2022-12-11T00:26:49.256Z,0.30
2022-12-11T00:28:22.387Z,0.30
2022-12-11T00:29:55.277Z,0.20
2022-12-11T00:31:28.225Z,0.20
2022-12-11T00:33:01.063Z,0.30
2022-12-11T00:34:33.938Z,0.20
2022-12-11T00:36:12.829Z,0.30
2022-12-11T00:37:47.142Z,0.20
2022-12-11T00:39:20.041Z,0.20
2022-12-11T00:40:52.252Z,0.20
2022-12-11T00:42:25.119Z,0.20
2022-12-11T00:43:58.028Z,0.20
2022-12-11T00:45:31.058Z,0.20
2022-12-11T00:47:04.206Z,0.30
2022-12-11T00:48:36.105Z,0.30
2022-12-11T00:50:09.598Z,0.30
2022-12-11T00:51:42.597Z,0.20
2022-12-11T00:53:15.822Z,0.20
2022-12-11T00:54:48.892Z,0.10
2022-12-11T00:56:23.532Z,0.10
2022-12-11T00:57:55.851Z,0.10
2022-12-11T00:59:29.660Z,0.10
2022-12-11T01:01:07.708Z,0.10
2022-12-11T01:02:40.757Z,0.00
2022-12-11T01:04:13.665Z,0.00
2022-12-11T01:05:52.271Z,0.00
2022-12-11T01:07:25.170Z,0.00
2022-12-11T01:09:25.143Z,0.00
2022-12-11T01:11:05.955Z,0.00
2022-12-11T01:12:37.935Z,-0.60
2022-12-11T01:14:15.154Z,0.10
2022-12-11T01:15:47.998Z,0.50
2022-12-11T01:17:21.999Z,-0.10
2022-12-11T01:18:54.907Z,-0.10
2022-12-11T01:20:29.181Z,-0.20
2022-12-11T01:22:02.009Z,-0.10
2022-12-11T01:23:35.043Z,-0.20
2022-12-11T01:25:10.914Z,-0.20
2022-12-11T01:26:44.005Z,-0.20
2022-12-11T01:28:18.258Z,-0.20
2022-12-11T01:29:51.326Z,-0.20
2022-12-11T01:31:24.190Z,-0.20
2022-12-11T01:32:57.101Z,-0.20
2022-12-11T01:34:30.666Z,-0.20
2022-12-11T01:36:08.576Z,-0.20
2022-12-11T01:37:41.660Z,-0.20
2022-12-11T01:39:14.518Z,-0.20
2022-12-11T01:40:49.509Z,-0.20
2022-12-11T01:42:22.691Z,-0.20
2022-12-11T01:44:05.232Z,-0.20
2022-12-11T01:45:44.554Z,-0.20
2022-12-11T01:47:18.043Z,-0.20
2022-12-11T01:48:51.057Z,-0.20
2022-12-11T01:50:24.021Z,-0.20
2022-12-11T01:52:00.096Z,-0.20
2022-12-11T01:53:36.049Z,-0.30
2022-12-11T01:55:09.607Z,-0.20
2022-12-11T01:56:45.833Z,-0.20
2022-12-11T01:58:21.813Z,-0.20
2022-12-11T01:59:53.836Z,-0.20
2022-12-11T02:01:32.944Z,-0.20
2022-12-11T02:03:04.835Z,-0.20
2022-12-11T02:04:39.889Z,-0.20
2022-12-11T02:06:37.983Z,-0.30
2022-12-11T02:08:12.599Z,-0.30
2022-12-11T02:09:47.803Z,-0.20
2022-12-11T02:11:25.692Z,-0.20
2022-12-11T02:13:04.654Z,-0.20
2022-12-11T02:14:46.399Z,-0.20
2022-12-11T02:16:25.258Z,-0.20
2022-12-11T02:18:07.233Z,-0.20
2022-12-11T02:19:56.356Z,-0.10
2022-12-11T02:21:34.161Z,-0.10
2022-12-11T02:23:38.103Z,-0.10
2022-12-11T02:25:19.363Z,-0.10
2022-12-11T02:27:11.198Z,-0.10
2022-12-11T02:28:49.128Z,-0.50
2022-12-11T02:30:22.262Z,-0.20
2022-12-11T02:32:00.591Z,-0.70
2022-12-11T02:33:40.151Z,-0.10
2022-12-11T02:35:18.189Z,-0.20
2022-12-11T02:36:55.467Z,-0.20
2022-12-11T02:38:32.189Z,-0.20
2022-12-11T02:40:07.831Z,-0.20
2022-12-11T02:41:44.143Z,-0.30
2022-12-11T02:43:19.091Z,-0.70
2022-12-11T02:44:56.872Z,-0.20
2022-12-11T02:46:31.062Z,-0.20
2022-12-11T02:48:06.671Z,-0.20
2022-12-11T02:49:40.919Z,-0.20
2022-12-11T02:51:17.858Z,-0.20
2022-12-11T02:52:53.242Z,-0.20
2022-12-11T02:54:30.020Z,-0.10
2022-12-11T02:56:08.170Z,-0.10
2022-12-11T02:57:46.567Z,0.00
2022-12-11T02:59:24.929Z,-0.10
2022-12-11T03:00:59.600Z,0.00
2022-12-11T03:02:33.221Z,-0.10
2022-12-11T03:04:06.521Z,-0.10
2022-12-11T03:05:39.651Z,-0.10
2022-12-11T03:07:17.205Z,0.00
2022-12-11T03:08:51.824Z,-0.10
2022-12-11T03:10:25.179Z,-0.10
2022-12-11T03:11:56.979Z,0.00
2022-12-11T03:13:31.779Z,-0.10
2022-12-11T03:15:08.259Z,-0.10
2022-12-11T03:16:51.390Z,-0.10
2022-12-11T03:18:31.322Z,0.00
2022-12-11T03:20:13.073Z,-0.10
2022-12-11T03:21:53.622Z,-0.10
2022-12-11T03:23:32.871Z,-0.20
2022-12-11T03:25:11.142Z,-0.20
2022-12-11T03:26:56.201Z,-0.20
2022-12-11T03:28:33.009Z,-0.20
2022-12-11T03:30:08.588Z,-0.20
2022-12-11T03:31:45.687Z,-0.20
2022-12-11T03:33:24.869Z,-0.20
2022-12-11T03:35:03.289Z,-0.30
2022-12-11T03:36:39.438Z,-0.20
2022-12-11T03:38:20.853Z,-0.20
2022-12-11T03:39:58.923Z,-0.10
2022-12-11T03:41:32.785Z,-0.20
2022-12-11T03:43:07.579Z,-0.20
2022-12-11T03:44:42.026Z,-0.30
2022-12-11T03:46:17.003Z,-0.30
2022-12-11T03:47:53.459Z,-0.30
2022-12-11T03:49:29.880Z,-0.30
2022-12-11T03:51:06.259Z,-0.30
2022-12-11T03:52:45.587Z,-0.40
2022-12-11T03:54:19.507Z,-0.30
2022-12-11T03:55:52.615Z,-0.30
2022-12-11T03:57:30.409Z,-0.20
2022-12-11T03:59:03.427Z,-0.20
2022-12-11T04:00:36.266Z,-0.10
2022-12-11T04:02:11.273Z,-0.10
2022-12-11T04:03:44.623Z,-0.20
2022-12-11T04:05:17.504Z,-0.20
2022-12-11T04:06:49.464Z,-0.20
2022-12-11T04:08:24.289Z,-0.30
2022-12-11T04:09:57.306Z,-0.40
2022-12-11T04:11:35.055Z,-0.40
2022-12-11T04:13:08.167Z,-0.30
2022-12-11T04:14:59.172Z,-0.30
2022-12-11T04:16:32.149Z,-0.30
2022-12-11T04:18:23.735Z,-0.40
2022-12-11T04:20:15.550Z,-0.30
2022-12-11T04:22:06.066Z,-0.30
2022-12-11T04:23:56.464Z,-0.30
2022-12-11T04:25:29.388Z,-0.30
2022-12-11T04:27:02.265Z,-0.30
2022-12-11T04:28:34.732Z,-0.30
2022-12-11T04:30:11.443Z,-0.30
2022-12-11T04:31:45.778Z,-0.40
2022-12-11T04:33:18.689Z,-0.40
2022-12-11T04:34:50.672Z,-0.40
2022-12-11T04:36:25.059Z,-0.30
2022-12-11T04:37:58.546Z,-0.30
2022-12-11T04:39:31.593Z,-0.30
2022-12-11T04:41:07.624Z,-0.30
2022-12-11T04:42:39.558Z,-0.30
2022-12-11T04:44:12.386Z,-0.30
2022-12-11T04:45:45.342Z,-0.30
2022-12-11T04:47:18.417Z,-0.30
2022-12-11T04:48:57.400Z,-0.40
2022-12-11T04:50:30.861Z,-0.30
2022-12-11T04:52:04.626Z,-0.40
2022-12-11T04:53:38.083Z,-0.50
2022-12-11T04:55:12.714Z,-0.50
2022-12-11T04:56:45.838Z,-0.50
2022-12-11T04:58:18.924Z,-0.40
2022-12-11T04:59:51.947Z,-0.40
2022-12-11T05:01:25.294Z,-0.40
2022-12-11T05:02:58.270Z,-0.40
2022-12-11T05:04:31.871Z,-0.40
2022-12-11T05:06:05.384Z,-0.50
2022-12-11T05:07:39.902Z,-0.50
2022-12-11T05:09:13.413Z,-0.50
2022-12-11T05:10:49.931Z,-0.60
2022-12-11T05:12:23.132Z,-0.60
2022-12-11T05:13:56.199Z,-0.70
2022-12-11T05:15:28.461Z,-0.70
2022-12-11T05:17:01.634Z,-0.80
2022-12-11T05:18:34.736Z,-0.80
2022-12-11T05:20:09.529Z,-0.80
2022-12-11T05:21:42.550Z,-0.80
2022-12-11T05:23:17.352Z,-0.90
2022-12-11T05:24:50.294Z,-0.90
2022-12-11T05:26:23.292Z,-0.90
2022-12-11T05:27:55.349Z,-0.90
2022-12-11T05:29:28.290Z,-0.90
2022-12-11T05:31:03.529Z,-0.90
2022-12-11T05:32:36.693Z,-0.90
2022-12-11T05:34:09.628Z,-0.90
2022-12-11T05:35:48.646Z,-0.90
2022-12-11T05:37:21.932Z,-1.00
2022-12-11T05:38:56.872Z,-1.00
2022-12-11T05:40:29.948Z,-1.00
2022-12-11T05:42:02.934Z,-1.00
2022-12-11T05:43:36.979Z,-1.00
2022-12-11T05:45:10.877Z,-0.20
2022-12-11T05:46:44.076Z,-1.10
2022-12-11T05:48:17.097Z,-1.10
2022-12-11T05:49:50.418Z,-1.10
2022-12-11T05:51:23.584Z,-1.20
2022-12-11T05:52:56.574Z,-1.20
2022-12-11T05:54:31.041Z,-1.20
2022-12-11T05:56:04.782Z,-1.30
2022-12-11T05:57:37.741Z,-1.30
2022-12-11T05:59:11.136Z,-1.40
2022-12-11T06:00:43.218Z,-1.40
2022-12-11T06:02:16.301Z,-1.50
2022-12-11T06:03:49.461Z,-1.50
2022-12-11T06:05:22.394Z,-1.50
2022-12-11T06:06:55.871Z,-1.60
2022-12-11T06:08:28.638Z,-1.60
2022-12-11T06:10:02.945Z,-1.70
2022-12-11T06:11:36.702Z,-1.40
2022-12-11T06:13:09.596Z,-1.70
2022-12-11T06:14:42.701Z,-1.70
2022-12-11T06:16:15.996Z,-1.70
2022-12-11T06:17:49.280Z,-0.20
2022-12-11T06:19:22.479Z,-1.70
2022-12-11T06:20:54.604Z,-1.70
2022-12-11T06:22:27.626Z,-1.70
2022-12-11T06:24:03.981Z,-1.70
2022-12-11T06:25:40.288Z,-1.70
2022-12-11T06:27:13.202Z,-1.60
2022-12-11T06:28:45.666Z,-1.60
2022-12-11T06:30:18.745Z,-1.60
2022-12-11T06:31:51.719Z,-1.60
2022-12-11T06:33:25.405Z,-1.70
2022-12-11T06:34:58.707Z,-1.70
2022-12-11T06:36:31.671Z,-1.70
2022-12-11T06:38:04.706Z,-1.80
2022-12-11T06:39:37.478Z,-1.80
2022-12-11T06:41:12.365Z,-1.90
2022-12-11T06:42:45.343Z,-1.90
2022-12-11T06:44:18.242Z,-2.00
2022-12-11T06:45:50.715Z,-2.10
2022-12-11T06:47:23.596Z,-2.20
2022-12-11T06:48:56.680Z,-2.20
2022-12-11T06:50:29.652Z,-2.20
2022-12-11T06:52:02.639Z,-2.20
2022-12-11T06:53:35.975Z,-2.20
2022-12-11T06:55:09.483Z,-2.20
2022-12-11T06:56:43.967Z,-1.60
2022-12-11T06:58:16.950Z,-2.20
2022-12-11T06:59:49.941Z,-2.20
2022-12-11T07:01:25.363Z,-2.20
2022-12-11T07:02:57.918Z,-2.20
2022-12-11T07:04:30.814Z,-2.20
2022-12-11T07:06:04.012Z,-2.70
2022-12-11T07:07:37.130Z,-2.20
2022-12-11T07:09:11.210Z,-2.10
2022-12-11T07:10:44.210Z,-2.10
2022-12-11T07:12:18.926Z,-2.00
2022-12-11T07:13:52.333Z,-2.10
2022-12-11T07:15:25.201Z,-2.00
2022-12-11T07:16:58.690Z,-2.00
2022-12-11T07:18:31.698Z,-2.00
2022-12-11T07:20:05.719Z,-2.00
2022-12-11T07:21:38.720Z,-2.00
2022-12-11T07:23:11.736Z,-1.90
2022-12-11T07:24:44.705Z,-1.90
2022-12-11T07:26:20.062Z,-1.80
2022-12-11T07:27:54.372Z,-1.80
2022-12-11T07:29:27.333Z,-1.70
2022-12-11T07:31:00.430Z,-1.60
2022-12-11T07:32:33.410Z,-1.60
2022-12-11T07:34:08.105Z,-1.60
2022-12-11T07:35:41.027Z,-1.50
2022-12-11T07:37:13.888Z,-1.40
2022-12-11T07:38:47.188Z,-1.50
2022-12-11T07:40:20.104Z,-0.20
2022-12-11T07:41:53.513Z,-1.40
2022-12-11T07:43:27.546Z,-1.40
2022-12-11T07:45:00.868Z,-1.30
2022-12-11T07:46:35.566Z,-1.30
2022-12-11T07:48:08.439Z,-1.30
2022-12-11T07:49:41.316Z,-1.20
2022-12-11T07:51:16.476Z,-1.20
2022-12-11T07:52:49.394Z,-1.10
2022-12-11T07:54:22.401Z,-1.10
2022-12-11T07:55:55.279Z,-1.00
2022-12-11T07:57:29.309Z,-1.00
2022-12-11T07:59:05.029Z,-1.00
2022-12-11T08:00:37.882Z,-1.00
2022-12-11T08:02:11.766Z,-1.00
2022-12-11T08:03:45.040Z,-0.20
2022-12-11T08:05:18.120Z,-1.00
2022-12-11T08:06:51.002Z,-1.00
2022-12-11T08:08:23.960Z,-1.00
2022-12-11T08:09:56.923Z,-1.00
2022-12-11T08:11:30.451Z,-1.00
2022-12-11T08:13:03.360Z,-1.00
2022-12-11T08:14:37.784Z,-1.00
2022-12-11T08:16:13.355Z,-1.00
2022-12-11T08:17:46.301Z,-1.00
2022-12-11T08:19:19.436Z,-1.70
2022-12-11T08:20:52.628Z,-1.00
2022-12-11T08:22:25.562Z,-1.00
2022-12-11T08:23:59.832Z,0.80
2022-12-11T08:25:32.678Z,-0.90
2022-12-11T08:27:05.590Z,-0.60
2022-12-11T08:28:38.694Z,-0.80
2022-12-11T08:30:13.903Z,-0.70
2022-12-11T08:31:46.790Z,-0.60
2022-12-11T08:33:19.973Z,-0.50
2022-12-11T08:34:52.979Z,-0.50
2022-12-11T08:36:27.075Z,-0.70
2022-12-11T08:38:00.278Z,-0.50
2022-12-11T08:39:33.162Z,-0.50
2022-12-11T08:41:10.492Z,-0.30
2022-12-11T08:42:43.482Z,-0.30
2022-12-11T08:44:17.130Z,-0.30
2022-12-11T08:45:51.648Z,-0.20
2022-12-11T08:47:24.607Z,-0.20
2022-12-11T08:48:58.237Z,-0.20
2022-12-11T08:50:31.081Z,-0.10
2022-12-11T08:52:05.001Z,-0.10
2022-12-11T08:53:38.889Z,0.00
2022-12-11T08:55:12.584Z,0.10
2022-12-11T08:56:45.643Z,0.10
2022-12-11T08:58:18.481Z,0.20
2022-12-11T08:59:51.335Z,0.20
2022-12-11T09:01:27.444Z,0.30
2022-12-11T09:03:00.461Z,0.30
2022-12-11T09:04:33.381Z,0.30
2022-12-11T09:06:07.351Z,0.30
2022-12-11T09:07:40.358Z,0.30
2022-12-11T09:09:13.438Z,0.30
2022-12-11T09:10:46.316Z,0.40
2022-12-11T09:12:19.263Z,0.50
2022-12-11T09:13:52.534Z,0.60
2022-12-11T09:15:25.431Z,0.60
2022-12-11T09:16:59.740Z,0.60
2022-12-11T09:18:32.591Z,0.60
2022-12-11T09:20:06.750Z,0.60
2022-12-11T09:21:39.855Z,0.70
2022-12-11T09:23:12.708Z,0.70
2022-12-11T09:24:46.204Z,0.80
2022-12-11T09:26:20.027Z,0.90
2022-12-11T09:27:52.982Z,0.90
2022-12-11T09:29:25.831Z,0.90
2022-12-11T09:30:58.809Z,1.00
2022-12-11T09:32:33.178Z,1.00
2022-12-11T09:34:09.160Z,1.00
2022-12-11T09:35:41.995Z,1.00
2022-12-11T09:37:14.952Z,1.00
2022-12-11T09:38:48.262Z,1.00
2022-12-11T09:40:21.240Z,0.90
2022-12-11T09:42:01.150Z,0.70
2022-12-11T09:43:40.626Z,0.60
2022-12-11T09:45:16.125Z,0.60
2022-12-11T09:46:49.857Z,0.60
2022-12-11T09:48:27.119Z,0.60
2022-12-11T09:50:07.918Z,0.60
2022-12-11T09:51:45.013Z,0.60
2022-12-11T09:53:24.588Z,0.60
2022-12-11T09:55:00.169Z,0.50
2022-12-11T09:56:35.324Z,0.40
2022-12-11T09:58:18.081Z,0.40
2022-12-11T10:00:05.998Z,0.40
2022-12-11T10:01:44.067Z,0.40
2022-12-11T10:03:36.536Z,0.40
2022-12-11T10:05:18.987Z,0.40
2022-12-11T10:07:01.251Z,0.40
2022-12-11T10:08:41.087Z,0.40
2022-12-11T10:10:23.320Z,0.40
2022-12-11T10:12:09.103Z,0.40
2022-12-11T10:13:50.271Z,0.30
2022-12-11T10:15:35.040Z,0.40
2022-12-11T10:17:14.352Z,0.40
2022-12-11T10:18:49.748Z,0.50
2022-12-11T10:20:26.757Z,0.50
2022-12-11T10:22:01.764Z,0.50
2022-12-11T10:23:41.453Z,0.50
2022-12-11T10:25:28.351Z,0.60
2022-12-11T10:27:13.528Z,0.60
2022-12-11T10:28:46.713Z,0.70
2022-12-11T10:30:23.246Z,0.60
2022-12-11T10:31:58.359Z,0.50
2022-12-11T10:33:41.643Z,0.50
2022-12-11T10:35:21.795Z,0.40
2022-12-11T10:37:00.302Z,0.40
2022-12-11T10:38:35.704Z,0.20
2022-12-11T10:40:09.858Z,0.30
2022-12-11T10:41:44.654Z,0.30
2022-12-11T10:43:17.778Z,0.20
2022-12-11T10:44:59.155Z,0.20
2022-12-11T10:46:33.167Z,0.20
2022-12-11T10:48:08.666Z,0.20
2022-12-11T10:49:45.683Z,0.30
2022-12-11T10:51:20.687Z,0.30
2022-12-11T10:52:54.217Z,0.40
2022-12-11T10:54:38.208Z,0.40
2022-12-11T10:56:12.479Z,0.40
2022-12-11T10:57:46.455Z,0.40
2022-12-11T10:59:25.306Z,0.50
2022-12-11T11:01:06.818Z,0.60
2022-12-11T11:02:40.967Z,0.50
2022-12-11T11:04:20.265Z,0.50
2022-12-11T11:06:04.956Z,0.40
2022-12-11T11:07:39.399Z,0.50
2022-12-11T11:09:30.531Z,0.50
2022-12-11T11:11:03.372Z,-0.20
2022-12-11T11:12:40.309Z,0.50
2022-12-11T11:14:18.469Z,0.50
2022-12-11T11:15:59.439Z,0.40
2022-12-11T11:17:35.096Z,0.40
2022-12-11T11:19:19.681Z,0.30
2022-12-11T11:20:52.713Z,0.20
2022-12-11T11:22:25.625Z,0.20
2022-12-11T11:23:59.996Z,0.20
2022-12-11T11:25:34.825Z,0.20
2022-12-11T11:27:14.633Z,0.30
2022-12-11T11:28:50.852Z,0.30
2022-12-11T11:30:26.146Z,0.40
2022-12-11T11:32:15.457Z,1.40
2022-12-11T11:33:57.396Z,0.50
2022-12-11T11:35:32.091Z,0.60
2022-12-11T11:37:06.001Z,0.50
2022-12-11T11:38:45.699Z,0.80
2022-12-11T11:40:25.240Z,0.60
2022-12-11T11:42:04.263Z,0.60
2022-12-11T11:43:43.923Z,0.50
2022-12-11T11:45:21.889Z,0.60
2022-12-11T11:47:00.084Z,0.60
2022-12-11T11:48:39.659Z,0.60
2022-12-11T11:50:19.124Z,0.50
2022-12-11T11:51:57.810Z,0.50
2022-12-11T11:53:37.276Z,0.60
2022-12-11T11:55:22.147Z,0.60
2022-12-11T11:56:59.605Z,0.50
2022-12-11T11:58:40.256Z,0.40
2022-12-11T12:00:20.788Z,0.30
2022-12-11T12:01:57.187Z,0.20
2022-12-11T12:03:30.395Z,0.20
2022-12-11T12:05:03.701Z,0.20
2022-12-11T12:06:51.035Z,0.30
2022-12-11T12:08:36.421Z,0.30
2022-12-11T12:10:19.203Z,0.40
2022-12-11T12:12:01.346Z,0.40
2022-12-11T12:13:49.507Z,0.40
2022-12-11T12:15:37.840Z,0.50
2022-12-11T12:17:22.448Z,0.60
2022-12-11T12:19:09.156Z,0.70
2022-12-11T12:20:49.211Z,0.70
2022-12-11T12:22:42.427Z,0.70
2022-12-11T12:24:24.534Z,0.60
2022-12-11T12:26:02.097Z,0.70
2022-12-11T12:27:53.868Z,0.60
2022-12-11T12:29:44.268Z,0.60
2022-12-11T12:31:28.611Z,0.50
2022-12-11T12:33:17.539Z,0.50
2022-12-11T12:35:04.284Z,0.50
2022-12-11T12:36:45.022Z,0.50
2022-12-11T12:38:26.163Z,0.50
2022-12-11T12:40:11.775Z,0.50
2022-12-11T12:41:54.090Z,0.50
2022-12-11T12:45:54.876Z,0.50
2022-12-11T12:47:32.315Z,0.40
2022-12-11T12:49:08.701Z,0.30
2022-12-11T12:50:44.659Z,0.30
2022-12-11T12:52:21.842Z,0.10
2022-12-11T12:53:57.828Z,0.00
2022-12-11T12:55:32.174Z,-0.10
2022-12-11T12:57:06.183Z,-0.10
2022-12-11T12:58:44.837Z,0.00
2022-12-11T13:00:29.762Z,0.00
2022-12-11T13:02:06.352Z,0.00
2022-12-11T13:03:51.951Z,-0.10
2022-12-11T13:05:27.339Z,-0.10
2022-12-11T13:07:00.955Z,-0.10
2022-12-11T13:08:39.477Z,-0.10
2022-12-11T13:10:26.193Z,-0.20
2022-12-11T13:11:59.132Z,-0.10
2022-12-11T13:13:36.617Z,-0.10
2022-12-11T13:15:31.817Z,-0.10
2022-12-11T13:17:25.353Z,-0.10
2022-12-11T13:18:58.208Z,0.00
2022-12-11T13:20:33.272Z,0.00
2022-12-11T13:22:22.734Z,0.00
2022-12-11T13:23:56.208Z,0.20
2022-12-11T13:25:31.504Z,0.40
2022-12-11T13:27:11.524Z,0.40
2022-12-11T13:28:51.060Z,0.40
2022-12-11T13:30:28.330Z,0.30
2022-12-11T13:32:02.997Z,0.30
2022-12-11T13:33:43.968Z,0.30
2022-12-11T13:35:18.626Z,0.30
2022-12-11T13:36:53.556Z,0.30
2022-12-11T13:38:26.969Z,0.30
2022-12-11T13:40:00.136Z,0.20
2022-12-11T13:41:36.604Z,0.10
2022-12-11T13:43:18.989Z,0.10
2022-12-11T13:44:52.909Z,0.00
2022-12-11T13:46:30.236Z,-0.10
2022-12-11T13:48:03.216Z,-0.10
2022-12-11T13:49:38.448Z,-0.10
2022-12-11T13:51:18.362Z,0.00
2022-12-11T13:52:54.849Z,0.00
2022-12-11T13:54:28.888Z,0.00
2022-12-11T13:56:03.583Z,0.00
2022-12-11T13:57:47.235Z,-0.10
2022-12-11T13:59:25.140Z,-0.10
2022-12-11T14:01:08.691Z,-0.20
2022-12-11T14:02:43.330Z,-0.20
2022-12-11T14:04:20.739Z,-0.20
2022-12-11T14:05:53.949Z,-0.20
2022-12-11T14:07:30.127Z,-0.20
2022-12-11T14:09:05.309Z,-0.20
2022-12-11T14:10:38.954Z,-0.20
2022-12-11T14:12:18.455Z,-0.10
2022-12-11T14:13:51.596Z,-0.10
2022-12-11T14:15:24.842Z,-0.10
2022-12-11T14:16:57.835Z,-0.20
2022-12-11T14:18:36.171Z,-0.20
2022-12-11T14:20:18.666Z,-0.30
2022-12-11T14:22:00.408Z,-0.40
2022-12-11T14:23:34.667Z,-0.50
2022-12-11T14:25:21.747Z,-0.60
2022-12-11T14:26:55.620Z,-0.70
2022-12-11T14:28:30.852Z,-0.70
2022-12-11T14:30:12.346Z,-0.70
2022-12-11T14:31:45.682Z,-0.70
2022-12-11T14:33:20.096Z,-0.60
2022-12-11T14:34:55.788Z,-0.60
2022-12-11T14:36:30.192Z,-0.60
2022-12-11T14:38:09.100Z,-0.60
2022-12-11T14:39:47.506Z,-0.60
2022-12-11T14:41:25.635Z,-0.60
2022-12-11T14:43:03.060Z,-0.60
2022-12-11T14:44:44.571Z,-0.60
2022-12-11T14:46:19.828Z,-0.60
2022-12-11T14:47:55.958Z,-0.60
2022-12-11T14:49:40.305Z,-0.70
2022-12-11T14:51:18.250Z,-0.70
2022-12-11T14:52:54.587Z,-0.60
2022-12-11T14:54:32.453Z,-0.70
2022-12-11T14:56:09.025Z,-0.70
2022-12-11T14:57:44.675Z,-0.70
2022-12-11T14:59:28.320Z,-0.70
2022-12-11T15:01:05.439Z,-0.70
2022-12-11T15:02:38.429Z,-0.70
2022-12-11T15:04:23.876Z,-0.80
2022-12-11T15:05:58.539Z,-0.70
2022-12-11T15:07:33.291Z,-0.80
2022-12-11T15:09:21.064Z,-0.80
2022-12-11T15:11:08.538Z,-0.80
2022-12-11T15:12:45.562Z,-0.80
2022-12-11T15:14:20.679Z,-0.80
2022-12-11T15:15:55.749Z,-0.80
2022-12-11T15:17:29.518Z,-0.80
2022-12-11T15:19:03.470Z,-0.90
2022-12-11T15:20:36.558Z,-0.90
2022-12-11T15:22:15.071Z,-0.90
2022-12-11T15:23:52.476Z,-0.80
2022-12-11T15:25:27.448Z,-0.80
2022-12-11T15:27:01.698Z,-0.80
2022-12-11T15:28:36.573Z,-0.80
2022-12-11T15:30:28.464Z,-0.80
2022-12-11T15:32:04.760Z,-0.80
2022-12-11T15:33:47.640Z,-0.80
2022-12-11T15:35:26.147Z,-0.80
2022-12-11T15:36:59.062Z,-0.80
2022-12-11T15:38:37.579Z,-0.80
2022-12-11T15:40:13.211Z,-0.70
2022-12-11T15:41:46.328Z,-0.80
2022-12-11T15:43:19.248Z,-0.80
2022-12-11T15:44:52.596Z,-0.90
2022-12-11T15:46:25.579Z,-0.90
2022-12-11T15:47:59.467Z,-0.90
2022-12-11T15:49:32.359Z,-0.90
2022-12-11T15:51:05.708Z,-1.00
2022-12-11T15:52:38.594Z,-1.00
2022-12-11T15:54:11.679Z,-1.00
2022-12-11T15:55:46.079Z,-0.90
2022-12-11T15:57:21.656Z,-0.90
2022-12-11T15:58:54.637Z,-1.00
2022-12-11T16:00:28.200Z,-0.90
2022-12-11T16:02:01.095Z,-0.90
2022-12-11T16:03:33.925Z,-1.00
2022-12-11T16:05:07.106Z,-1.00
2022-12-11T16:06:45.152Z,-1.00
2022-12-11T16:08:20.233Z,-1.00
2022-12-11T16:09:54.035Z,-1.00
2022-12-11T16:11:28.473Z,-1.00
2022-12-11T16:13:02.553Z,-1.00
2022-12-11T16:14:38.006Z,-1.00
2022-12-11T16:16:10.953Z,-1.00
2022-12-11T16:17:43.918Z,-1.00
2022-12-11T16:19:16.795Z,-1.00
2022-12-11T16:20:51.003Z,-1.10
2022-12-11T16:22:24.090Z,-1.10
2022-12-11T16:23:56.924Z,-1.00
2022-12-11T16:25:30.474Z,-1.00
2022-12-11T16:27:05.941Z,-1.00
2022-12-11T16:28:38.835Z,-1.10
2022-12-11T16:30:12.554Z,-1.10
2022-12-11T16:31:45.428Z,-1.10
2022-12-11T16:33:18.610Z,-1.20
2022-12-11T16:34:51.525Z,-1.10
2022-12-11T16:36:25.042Z,-1.20
2022-12-11T16:37:58.305Z,-1.10
2022-12-11T16:39:31.280Z,-1.10
2022-12-11T16:41:04.123Z,-1.10
2022-12-11T16:42:39.120Z,-1.10
2022-12-11T16:44:12.133Z,-1.10
2022-12-11T16:45:45.024Z,-1.10
2022-12-11T16:47:17.907Z,-1.20
2022-12-11T16:48:50.850Z,-1.20
2022-12-11T16:50:24.009Z,-1.20
2022-12-11T16:51:56.874Z,-1.20
2022-12-11T16:53:29.810Z,-1.20
2022-12-11T16:55:02.712Z,-1.20
2022-12-11T16:56:35.868Z,-1.20
2022-12-11T16:58:11.313Z,-1.10
2022-12-11T16:59:44.254Z,-1.10
2022-12-11T17:01:17.392Z,-1.10
2022-12-11T17:02:50.486Z,-1.10
2022-12-11T17:04:23.409Z,-1.20
2022-12-11T17:05:56.505Z,-1.20
2022-12-11T17:07:29.560Z,-1.10
2022-12-11T17:09:02.478Z,-1.10
2022-12-11T17:10:35.513Z,-1.10
2022-12-11T17:12:09.296Z,-1.10
2022-12-11T17:13:44.173Z,-1.10
2022-12-11T17:15:17.304Z,-1.20
2022-12-11T17:16:50.154Z,-1.20
2022-12-11T17:18:26.037Z,-1.10
2022-12-11T17:19:58.993Z,-1.10
2022-12-11T17:21:32.116Z,-1.10
2022-12-11T17:23:04.946Z,-1.10
2022-12-11T17:24:37.940Z,-1.00
2022-12-11T17:26:11.134Z,-1.00
2022-12-11T17:27:44.779Z,-1.00
2022-12-11T17:29:19.919Z,-1.00
2022-12-11T17:30:53.033Z,-1.00
2022-12-11T17:32:25.917Z,-1.00
2022-12-11T17:34:00.679Z,-1.00
2022-12-11T17:35:33.621Z,-1.00
2022-12-11T17:37:06.973Z,-1.00
2022-12-11T17:38:39.671Z,-1.00
2022-12-11T17:40:13.226Z,-1.00
2022-12-11T17:41:46.133Z,-1.00
2022-12-11T17:43:18.984Z,-1.00
2022-12-11T17:44:53.239Z,-1.00
2022-12-11T17:46:26.147Z,-1.00
2022-12-11T17:47:59.053Z,-1.00
2022-12-11T17:49:32.589Z,-1.00
2022-12-11T17:51:07.226Z,-1.00
2022-12-11T17:52:44.186Z,-0.90
2022-12-11T17:54:17.464Z,-0.90
2022-12-11T17:55:51.741Z,-0.90
2022-12-11T17:57:24.807Z,-0.90
2022-12-11T17:58:59.285Z,-1.00
2022-12-11T18:00:33.656Z,-0.60
2022-12-11T18:02:06.861Z,-0.90
2022-12-11T18:03:40.174Z,-0.90
2022-12-11T18:05:13.648Z,-1.00
2022-12-11T18:06:46.780Z,-0.80
2022-12-11T18:08:21.734Z,-0.90
2022-12-11T18:09:54.865Z,-0.90
2022-12-11T18:11:28.104Z,-0.90
2022-12-11T18:13:00.991Z,-0.90
2022-12-11T18:14:34.078Z,-0.90
2022-12-11T18:16:11.885Z,-0.90
2022-12-11T18:17:44.903Z,-0.90
2022-12-11T18:19:19.407Z,-1.40
2022-12-11T18:20:52.549Z,-0.90
2022-12-11T18:22:25.404Z,-0.90
2022-12-11T18:23:58.921Z,-0.90
2022-12-11T18:25:32.070Z,-0.90
2022-12-11T18:27:06.793Z,-0.90
2022-12-11T18:28:39.643Z,-0.90
2022-12-11T18:30:14.519Z,-0.90
2022-12-11T18:31:48.942Z,-0.90
2022-12-11T18:33:21.937Z,-0.90
2022-12-11T18:34:54.986Z,-0.90
2022-12-11T18:36:28.461Z,-0.90
2022-12-11T18:38:01.413Z,-0.90
2022-12-11T18:39:34.352Z,-0.20
2022-12-11T18:41:08.761Z,-0.90
2022-12-11T18:42:41.669Z,-0.90
2022-12-11T18:44:14.579Z,-0.90
2022-12-11T18:45:47.528Z,-0.90
2022-12-11T18:47:21.788Z,-0.90
2022-12-11T18:48:54.652Z,-0.80
2022-12-11T18:50:27.729Z,-0.90
2022-12-11T18:52:00.620Z,-0.90
2022-12-11T18:53:34.668Z,-0.80
2022-12-11T18:55:08.454Z,-0.80
2022-12-11T18:56:41.814Z,-0.90
2022-12-11T18:58:16.029Z,-0.90
2022-12-11T18:59:52.019Z,-0.90
2022-12-11T19:01:27.038Z,-0.90
2022-12-11T19:03:02.066Z,-0.90
2022-12-11T19:04:36.029Z,-0.40
2022-12-11T19:06:11.067Z,-0.80
2022-12-11T19:07:43.992Z,-0.80
2022-12-11T19:09:17.005Z,-0.80
2022-12-11T19:10:50.052Z,-0.70
2022-12-11T19:12:22.932Z,-0.80
2022-12-11T19:13:57.558Z,-0.80
2022-12-11T19:15:30.661Z,-0.70
2022-12-11T19:17:04.244Z,-1.30
2022-12-11T19:18:38.481Z,-0.70
2022-12-11T19:20:40.322Z,-0.70
2022-12-11T19:22:05.609Z,-0.70
2022-12-11T19:23:38.727Z,-0.70
2022-12-11T19:25:12.058Z,-0.70
2022-12-11T19:26:44.964Z,-0.70
2022-12-11T19:28:19.360Z,-0.70
2022-12-11T19:29:52.237Z,-0.70
2022-12-11T19:31:25.155Z,-0.70
2022-12-11T19:32:58.328Z,-0.70
2022-12-11T19:34:32.630Z,-0.70
2022-12-11T19:36:07.347Z,-0.70
2022-12-11T19:37:40.262Z,-0.70
2022-12-11T19:39:14.819Z,-0.60
2022-12-11T19:40:48.087Z,-0.70
2022-12-11T19:42:21.140Z,-0.70
2022-12-11T19:43:55.597Z,-0.80
2022-12-11T19:45:28.452Z,-0.80
2022-12-11T19:47:01.509Z,-0.70
2022-12-11T19:48:37.373Z,-0.70
2022-12-11T19:50:11.922Z,-0.70
2022-12-11T19:51:45.340Z,-0.70
2022-12-11T19:53:18.120Z,-0.60
2022-12-11T19:54:51.025Z,-0.60
2022-12-11T19:56:24.402Z,-0.60
2022-12-11T19:57:57.284Z,-0.60
2022-12-11T19:59:30.186Z,-0.60
2022-12-11T20:01:03.865Z,-0.60
2022-12-11T20:02:36.943Z,-0.60
2022-12-11T20:04:12.151Z,-0.60
2022-12-11T20:05:46.414Z,-0.60
2022-12-11T20:07:19.514Z,-0.60
2022-12-11T20:08:52.587Z,-0.60
2022-12-11T20:10:25.612Z,-0.60
2022-12-11T20:11:58.560Z,-0.60
2022-12-11T20:13:32.188Z,-0.60
2022-12-11T20:15:06.073Z,-0.60
2022-12-11T20:17:09.441Z,-0.60
2022-12-11T20:18:32.245Z,-0.60
2022-12-11T20:20:05.630Z,-0.70
2022-12-11T20:21:39.703Z,-0.70
2022-12-11T20:23:12.773Z,-0.70
2022-12-11T20:24:45.650Z,-0.70
2022-12-11T20:26:22.377Z,-0.70
2022-12-11T20:27:56.387Z,-0.70
2022-12-11T20:29:29.343Z,-0.60
2022-12-11T20:31:05.876Z,-0.60
2022-12-11T20:32:38.899Z,-0.60
2022-12-11T20:34:12.497Z,-0.60
2022-12-11T20:35:45.972Z,-0.50
2022-12-11T20:37:20.197Z,-0.60
2022-12-11T20:38:53.347Z,-0.50
2022-12-11T20:40:26.343Z,-0.50
2022-12-11T20:42:01.099Z,-0.50
2022-12-11T20:43:34.056Z,-0.50
2022-12-11T20:45:09.067Z,-0.50